Spalding, Idaho
Current Conditions -  °F | °C
As of 10:56 AM on Friday 24 Oct 2014 (Local Time) from KLWS Reporting Station
Few Clouds Few Clouds  
Wind Chill: 53°   Ceiling: Unl
Heat Index: 53°   Visibility: 10mi
Dew Point: 49°   Wind: 5mph
Humidity: 86%   Direction: 60°ENE
Pressure: 30.09"   Gusts: NA
Location:  46.45°N, 116.82°W
Report Text: KLWS 241756Z 06004KT 10SM FEW120 12/09 A3009 RMK AO2 SLP190 60000 T01170094 10117 20094 58001
Loading
Personal Weather Stations






























Interactive Weather Map
Tropical Storm Tracking
New forecast layout! Learn more

10-Day Weather Forecast

Advertisements
Track Severe Weather on mobile